Time;durP1;ratioP1;P1;durP2;ratioP2;P2;SDS_P1;SDS_P2;PMS_P1;PMS_P2;Temp;Humidity;BMP_temperature;BMP_pressure;BME280_temperature;BME280_humidity;BME280_pressure;Samples;Min_cycle;Max_cycle;Signal;HPM_P1;HPM_P2
2022/07/20 00:01:08;;;;;;;7.50;4.47;;;;;;;16.84;86.79;100728.64;1757598;81;21471;-66
2022/07/20 00:03:37;;;;;;;5.25;4.08;;;;;;;16.86;86.90;100725.64;1756481;81;21070;-66
2022/07/20 00:06:08;;;;;;;7.15;4.40;;;;;;;16.86;86.81;100722.87;1755224;81;21074;-66
2022/07/20 00:11:27;;;;;;;5.85;3.70;;;;;;;16.79;86.77;100718.25;1724962;81;21070;-66
2022/07/20 00:14:00;;;;;;;6.20;3.75;;;;;;;16.77;86.91;100719.02;1723785;83;21058;-67
2022/07/20 00:16:30;;;;;;;6.70;4.10;;;;;;;16.75;86.98;100714.26;1724579;81;21047;-68
2022/07/20 00:19:02;;;;;;;4.45;3.60;;;;;;;16.73;86.96;100719.18;1723728;83;21043;-67
2022/07/20 00:21:32;;;;;;;4.75;3.40;;;;;;;16.72;86.97;100716.11;1724872;81;21046;-65
2022/07/20 00:24:02;;;;;;;5.55;3.47;;;;;;;16.68;86.84;100717.64;1723757;83;21268;-66
2022/07/20 00:26:33;;;;;;;5.95;3.47;;;;;;;16.65;86.88;100724.14;1723689;83;21059;-65
2022/07/20 00:29:03;;;;;;;10.53;3.70;;;;;;;16.61;86.93;100723.75;1723737;83;21089;-66
2022/07/20 00:31:33;;;;;;;5.78;3.70;;;;;;;16.58;87.07;100715.06;1724701;81;21090;-67
2022/07/20 00:34:03;;;;;;;5.00;3.02;;;;;;;16.56;87.01;100715.30;1724352;83;21066;-67
2022/07/20 00:36:33;;;;;;;6.28;3.22;;;;;;;16.54;87.10;100714.69;1725126;83;21076;-66
2022/07/20 00:39:03;;;;;;;5.60;3.90;;;;;;;16.55;87.20;100709.45;1726726;83;20993;-66
2022/07/20 00:41:54;;;;;;;6.30;3.65;;;;;;;16.56;87.28;100711.15;1726611;83;21027;-67
2022/07/20 00:44:27;;;;;;;5.25;3.87;;;;;;;16.56;87.39;100701.47;1684169;85;21056;-65
2022/07/20 00:46:58;;;;;;;7.95;4.30;;;;;;;16.51;87.23;100707.38;1696155;84;21062;-66
2022/07/20 00:49:29;;;;;;;4.75;4.25;;;;;;;16.46;87.27;100704.77;1747789;81;21427;-66
2022/07/20 00:51:59;;;;;;;6.05;4.40;;;;;;;16.45;87.43;100703.61;1745408;82;21030;-66
2022/07/20 00:54:30;;;;;;;5.62;4.67;;;;;;;16.42;87.46;100697.15;1717813;83;21018;-66
2022/07/20 00:57:00;;;;;;;6.03;4.85;;;;;;;16.39;87.50;100705.91;1717956;83;21011;-67
2022/07/20 00:59:29;;;;;;;6.12;4.60;;;;;;;16.36;87.55;100710.52;1717845;83;21086;-65
2022/07/20 01:01:58;;;;;;;7.15;5.30;;;;;;;16.33;87.57;100710.97;1661052;85;21535;-67
2022/07/20 01:04:30;;;;;;;8.50;4.72;;;;;;;16.31;87.76;100707.58;1683580;85;21051;-66
2022/07/20 01:07:01;;;;;;;7.12;4.60;;;;;;;16.32;87.67;100709.28;1687089;85;21102;-67
2022/07/20 01:09:32;;;;;;;5.83;4.35;;;;;;;16.28;87.69;100706.66;1687062;84;21062;-68
2022/07/20 01:12:03;;;;;;;6.95;4.50;;;;;;;16.21;87.78;100711.37;1664604;83;21106;-65
2022/07/20 01:14:32;;;;;;;7.45;4.50;;;;;;;16.19;87.99;100710.22;1707547;84;21622;-66
2022/07/20 01:17:01;;;;;;;7.25;4.33;;;;;;;16.20;88.05;100708.30;1717035;83;21036;-65
2022/07/20 01:19:31;;;;;;;7.60;4.20;;;;;;;16.21;88.21;100702.54;1717025;83;21009;-67
2022/07/20 01:22:01;;;;;;;6.42;4.70;;;;;;;16.21;88.13;100703.08;1698036;82;21243;-65
2022/07/20 01:24:33;;;;;;;4.92;4.42;;;;;;;16.16;88.25;100704.61;1713401;82;21063;-67
2022/07/20 01:27:04;;;;;;;5.97;4.40;;;;;;;16.14;88.62;100702.61;1718040;83;21023;-67
2022/07/20 01:29:35;;;;;;;8.28;4.83;;;;;;;16.17;88.80;100705.45;1717988;83;21035;-66
2022/07/20 01:32:05;;;;;;;6.33;4.58;;;;;;;16.20;88.83;100708.30;1717898;83;21035;-66
2022/07/20 01:34:36;;;;;;;9.35;4.40;;;;;;;16.20;88.75;100711.06;1718610;82;21474;-66
2022/07/20 01:37:06;;;;;;;6.10;4.25;;;;;;;16.20;88.71;100709.68;1728711;82;21050;-67
2022/07/20 01:39:37;;;;;;;5.30;4.40;;;;;;;16.19;88.51;100717.12;1752464;82;21055;-65
2022/07/20 01:42:07;;;;;;;6.97;4.58;;;;;;;16.14;88.45;100711.44;1752155;82;21563;-65
2022/07/20 01:44:38;;;;;;;6.90;4.33;;;;;;;16.08;88.52;100705.43;1748447;82;20991;-67
2022/07/20 01:47:08;;;;;;;7.47;4.45;;;;;;;16.06;88.59;100707.04;1748904;82;21983;-68
2022/07/20 01:49:39;;;;;;;6.85;4.28;;;;;;;16.06;88.69;100703.43;1683445;85;21067;-64
2022/07/20 01:52:09;;;;;;;6.87;4.53;;;;;;;16.08;88.76;100709.05;1682898;84;21057;-66
2022/07/20 01:54:39;;;;;;;6.03;3.98;;;;;;;16.08;88.76;100703.52;1695749;84;21130;-66
2022/07/20 01:57:10;;;;;;;8.20;4.10;;;;;;;16.09;88.77;100706.59;1695828;84;21071;-66
2022/07/20 01:59:39;;;;;;;6.42;4.10;;;;;;;16.09;88.74;100712.11;1651197;84;21055;-66
2022/07/20 02:02:10;;;;;;;7.37;4.33;;;;;;;16.07;88.62;100711.49;1631012;85;21090;-66
2022/07/20 02:04:39;;;;;;;4.70;3.72;;;;;;;16.04;88.63;100711.95;1642450;87;21143;-67
2022/07/20 02:07:08;;;;;;;6.90;4.20;;;;;;;15.98;88.57;100717.53;1642494;87;21487;-66
2022/07/20 02:09:38;;;;;;;5.92;3.92;;;;;;;15.93;88.72;100714.06;1643464;85;21436;-67
2022/07/20 02:12:08;;;;;;;6.65;4.62;;;;;;;15.90;88.80;100709.52;1642507;87;21103;-65
2022/07/20 02:14:38;;;;;;;7.28;4.67;;;;;;;15.88;88.76;100714.43;1683759;84;21561;-69
2022/07/20 02:17:10;;;;;;;9.45;5.10;;;;;;;15.87;88.82;100703.91;1661472;85;21036;-65
2022/07/20 02:19:43;;;;;;;6.67;4.90;;;;;;;15.88;88.87;100709.75;1661780;85;21039;-66
2022/07/20 02:22:14;;;;;;;5.12;4.30;;;;;;;15.90;88.82;100708.14;1667691;85;21059;-65
2022/07/20 02:24:45;;;;;;;6.15;5.10;;;;;;;15.91;88.93;100708.45;1686961;85;21075;-66
2022/07/20 02:27:15;;;;;;;6.08;4.90;;;;;;;15.89;88.83;100707.30;1713326;84;21103;-66
2022/07/20 02:29:46;;;;;;;7.10;5.30;;;;;;;15.86;88.97;100709.13;1713678;84;21051;-64
2022/07/20 02:32:16;;;;;;;7.20;5.28;;;;;;;15.87;89.03;100708.05;1713423;83;21070;-66
2022/07/20 02:34:48;;;;;;;5.62;5.00;;;;;;;15.88;89.02;100706.14;1701138;83;21877;-66
2022/07/20 02:37:18;;;;;;;7.45;5.87;;;;;;;15.86;89.05;100717.42;1655645;85;21028;-67
2022/07/20 02:39:47;;;;;;;7.12;5.75;;;;;;;15.83;89.10;100714.56;1707586;83;21024;-67
2022/07/20 02:42:17;;;;;;;7.67;5.60;;;;;;;15.80;89.30;100723.30;1684160;84;21019;-67
2022/07/20 02:44:47;;;;;;;8.30;5.45;;;;;;;15.81;89.46;100711.72;1689522;85;21032;-66
2022/07/20 02:47:17;;;;;;;6.60;5.05;;;;;;;15.85;89.55;100720.72;1689228;85;21087;-67
2022/07/20 02:49:48;;;;;;;8.35;5.40;;;;;;;15.85;89.38;100724.02;1689522;85;21059;-66
2022/07/20 02:52:17;;;;;;;10.43;5.72;;;;;;;15.86;89.45;100709.13;1687515;84;21418;-67
2022/07/20 02:54:48;;;;;;;8.08;5.67;;;;;;;15.87;89.45;100708.59;1689471;85;21090;-67
2022/07/20 02:57:18;;;;;;;6.00;5.00;;;;;;;15.88;89.46;100710.28;1689551;85;21039;-67
2022/07/20 02:59:48;;;;;;;6.85;4.78;;;;;;;15.88;89.42;100708.91;1689363;84;21007;-67
2022/07/20 03:02:21;;;;;;;8.33;5.00;;;;;;;15.89;89.35;100708.67;1688777;83;21098;-65
2022/07/20 03:04:51;;;;;;;6.53;4.67;;;;;;;15.91;89.37;100707.91;1666663;86;21071;-67
2022/07/20 03:07:22;;;;;;;10.82;5.62;;;;;;;15.97;89.45;100710.31;1661529;86;21051;-65
2022/07/20 03:09:52;;;;;;;7.92;5.70;;;;;;;15.97;89.38;100712.55;1638573;85;21092;-66
2022/07/20 03:12:22;;;;;;;7.05;5.45;;;;;;;15.99;89.54;100715.92;1637326;88;21117;-67
2022/07/20 03:14:53;;;;;;;11.20;5.50;;;;;;;16.01;89.58;100708.25;1673913;83;21063;-65
2022/07/20 03:17:24;;;;;;;9.10;5.30;;;;;;;16.04;89.62;100713.33;1657166;86;21625;-68
2022/07/20 03:19:54;;;;;;;7.70;5.08;;;;;;;16.06;89.87;100712.56;1657288;86;21079;-67
2022/07/20 03:22:26;;;;;;;8.63;5.53;;;;;;;16.09;89.90;100712.11;1687982;84;21079;-65
2022/07/20 03:24:56;;;;;;;8.63;5.85;;;;;;;16.11;90.02;100715.50;1663542;84;21518;-66
2022/07/20 03:27:25;;;;;;;7.40;5.20;;;;;;;16.11;90.09;100714.66;1661775;86;21098;-66
2022/07/20 03:29:55;;;;;;;12.07;5.05;;;;;;;16.12;90.29;100713.58;1661627;85;21035;-66
2022/07/20 03:32:25;;;;;;;9.60;5.10;;;;;;;16.18;90.43;100718.20;1661679;85;21043;-67
2022/07/20 03:34:55;;;;;;;7.62;4.90;;;;;;;16.23;90.50;100723.90;1672758;85;21004;-67
2022/07/20 03:37:24;;;;;;;10.13;6.17;;;;;;;16.29;90.59;100722.17;1688013;85;21086;-66
2022/07/20 03:39:56;;;;;;;8.58;5.40;;;;;;;16.34;90.64;100719.03;1687756;85;21487;-67
2022/07/20 03:42:28;;;;;;;9.83;5.45;;;;;;;16.39;90.69;100721.97;1665085;85;21107;-67
2022/07/20 03:44:58;;;;;;;8.10;4.95;;;;;;;16.41;90.66;100721.20;1689200;83;21063;-67
2022/07/20 03:47:27;;;;;;;8.18;5.17;;;;;;;16.47;90.56;100721.66;1688306;85;21110;-65
2022/07/20 03:49:57;;;;;;;10.18;4.90;;;;;;;16.49;90.48;100713.98;1688298;85;21080;-66
2022/07/20 03:52:27;;;;;;;8.20;5.42;;;;;;;16.49;90.56;100715.91;1686071;85;21074;-66
2022/07/20 03:54:57;;;;;;;7.33;5.05;;;;;;;16.52;90.62;100719.59;1688451;85;21075;-65
2022/07/20 03:57:28;;;;;;;7.62;5.22;;;;;;;16.54;90.76;100713.84;1688683;85;21020;-64
2022/07/20 03:59:57;;;;;;;8.55;5.20;;;;;;;16.60;90.85;100708.77;1688423;85;21043;-65
2022/07/20 04:02:27;;;;;;;7.92;5.00;;;;;;;16.66;90.85;100701.80;1665012;85;21039;-66
2022/07/20 04:04:58;;;;;;;6.80;4.47;;;;;;;16.71;90.89;100700.58;1662071;86;21011;-64
2022/07/20 04:07:27;;;;;;;6.55;4.67;;;;;;;16.74;90.93;100697.34;1654750;87;21086;-66
2022/07/20 04:09:58;;;;;;;11.68;4.72;;;;;;;16.80;90.96;100697.81;1654899;86;21496;-65
2022/07/20 04:12:28;;;;;;;15.78;6.10;;;;;;;16.86;91.03;100696.03;1654780;86;21054;-66
2022/07/20 04:14:58;;;;;;;7.15;4.47;;;;;;;16.95;90.97;100692.45;1654634;86;21101;-66
2022/07/20 04:17:30;;;;;;;6.80;4.50;;;;;;;17.04;90.75;100696.59;1662600;85;21627;-67
2022/07/20 04:20:00;;;;;;;7.60;4.70;;;;;;;17.11;90.59;100688.50;1610866;89;21037;-66
2022/07/20 04:22:32;;;;;;;5.80;4.00;;;;;;;17.20;90.48;100685.41;1628145;88;21063;-66
2022/07/20 04:25:02;;;;;;;6.08;4.17;;;;;;;17.25;90.32;100691.92;1627990;88;21504;-66
2022/07/20 04:27:33;;;;;;;5.67;3.40;;;;;;;17.31;90.20;100688.22;1628080;88;21134;-66
2022/07/20 04:30:05;;;;;;;5.87;3.37;;;;;;;17.39;89.69;100684.27;1628232;87;21071;-66
2022/07/20 04:32:35;;;;;;;4.78;3.30;;;;;;;17.48;88.96;100683.39;1628683;86;21115;-66
2022/07/20 04:35:06;;;;;;;3.70;3.05;;;;;;;17.57;88.09;100680.63;1644023;86;21043;-63
2022/07/20 04:37:38;;;;;;;12.25;8.75;;;;;;;17.68;86.79;100674.30;1663442;86;21083;-65
2022/07/20 04:40:09;;;;;;;5.53;3.25;;;;;;;17.79;85.85;100669.86;1664839;86;21138;-66
2022/07/20 04:42:39;;;;;;;6.87;3.08;;;;;;;17.87;85.16;100670.34;1628242;88;21135;-66
2022/07/20 04:45:10;;;;;;;7.25;3.25;;;;;;;17.94;84.72;100668.31;1658407;86;21456;-66
2022/07/20 04:47:41;;;;;;;6.20;3.50;;;;;;;18.02;84.33;100666.56;1669361;86;21431;-66
2022/07/20 04:50:13;;;;;;;6.40;4.05;;;;;;;18.09;84.16;100663.67;1669235;86;21024;-66
2022/07/20 04:52:44;;;;;;;7.87;3.02;;;;;;;18.13;84.09;100662.65;1686585;83;21048;-67
2022/07/20 04:55:14;;;;;;;7.35;3.55;;;;;;;18.18;83.42;100658.61;1697560;83;21093;-65
2022/07/20 04:57:44;;;;;;;6.55;3.50;;;;;;;18.27;83.25;100650.26;1697802;84;21006;-66
2022/07/20 05:00:16;;;;;;;5.83;2.72;;;;;;;18.33;82.48;100652.91;1706921;83;21058;-66
2022/07/20 05:02:45;;;;;;;6.03;3.20;;;;;;;18.45;81.52;100653.44;1666489;86;21503;-67
2022/07/20 05:05:15;;;;;;;4.47;3.02;;;;;;;18.59;80.71;100649.30;1646715;86;21063;-67
2022/07/20 05:07:53;;;;;;;5.83;3.02;;;;;;;18.77;80.17;100642.78;1641178;87;21070;-65
2022/07/20 05:10:24;;;;;;;4.17;2.60;;;;;;;19.01;79.51;100647.19;1641202;87;21479;-66
2022/07/20 05:12:55;;;;;;;6.83;2.72;;;;;;;19.34;78.65;100638.10;1641255;87;21051;-67
2022/07/20 05:15:25;;;;;;;3.65;2.60;;;;;;;19.70;77.33;100632.69;1646111;86;21077;-65
2022/07/20 05:17:56;;;;;;;5.65;2.80;;;;;;;20.10;75.39;100627.48;1648895;87;21049;-67
2022/07/20 05:20:27;;;;;;;9.45;4.72;;;;;;;20.42;73.11;100629.12;1648975;87;21524;-65
2022/07/20 05:22:58;;;;;;;5.55;2.92;;;;;;;20.72;72.07;100621.17;1648765;86;21102;-67
2022/07/20 05:25:28;;;;;;;3.60;2.67;;;;;;;21.01;70.39;100617.65;1641371;87;21086;-66
2022/07/20 05:27:58;;;;;;;5.10;2.62;;;;;;;21.30;69.00;100616.03;1641147;87;21553;-66
2022/07/20 05:30:29;;;;;;;4.58;2.52;;;;;;;21.58;67.89;100614.38;1641197;87;21080;-67
2022/07/20 05:33:00;;;;;;;5.55;2.65;;;;;;;21.86;66.39;100608.19;1641511;87;21051;-65
2022/07/20 05:35:30;;;;;;;7.35;3.05;;;;;;;22.08;64.57;100613.13;1639543;86;21494;-66
2022/07/20 05:38:00;;;;;;;5.20;2.70;;;;;;;22.29;64.04;100603.80;1637196;88;21106;-67
2022/07/20 05:40:30;;;;;;;4.62;2.55;;;;;;;22.57;62.88;100595.57;1637467;88;21090;-67
2022/07/20 05:43:01;;;;;;;6.50;2.70;;;;;;;22.74;61.54;100596.20;1638047;86;21082;-66
2022/07/20 05:45:35;;;;;;;3.02;2.33;;;;;;;22.90;60.38;100599.95;1672820;84;21096;-68
2022/07/20 05:48:06;;;;;;;5.28;2.70;;;;;;;23.02;59.95;100605.30;1676987;85;21052;-65
2022/07/20 05:50:36;;;;;;;4.50;2.80;;;;;;;23.23;60.18;100597.23;1676988;85;21019;-66
2022/07/20 05:53:06;;;;;;;8.18;2.92;;;;;;;23.50;58.74;100597.02;1676841;85;21052;-65
2022/07/20 05:55:37;;;;;;;3.80;2.72;;;;;;;23.73;57.98;100589.22;1676450;85;21067;-68
2022/07/20 05:58:06;;;;;;;5.92;2.70;;;;;;;23.90;57.71;100587.80;1676760;85;21066;-67
2022/07/20 06:00:37;;;;;;;7.08;3.02;;;;;;;24.10;57.03;100592.56;1680253;84;21050;-66
2022/07/20 06:03:07;;;;;;;7.42;2.60;;;;;;;24.20;55.74;100581.34;1696159;84;21099;-66
2022/07/20 06:05:37;;;;;;;8.30;2.90;;;;;;;24.22;55.02;100585.27;1669511;86;21090;-66
2022/07/20 06:08:09;;;;;;;5.28;3.25;;;;;;;24.31;54.84;100583.02;1605903;89;21510;-67
2022/07/20 06:10:38;;;;;;;5.70;2.90;;;;;;;24.51;53.59;100578.48;1604930;87;21173;-66
2022/07/20 06:13:08;;;;;;;6.03;2.77;;;;;;;24.61;53.05;100573.67;1604553;89;21633;-67
2022/07/20 06:15:40;;;;;;;3.83;2.80;;;;;;;24.65;53.56;100572.53;1604410;89;21181;-64
2022/07/20 06:18:10;;;;;;;6.12;2.80;;;;;;;24.76;53.72;100567.19;1638280;87;21182;-66
2022/07/20 06:20:41;;;;;;;9.25;3.37;;;;;;;24.94;53.32;100569.33;1639050;87;21103;-66
2022/07/20 06:23:11;;;;;;;3.77;2.60;;;;;;;25.15;52.69;100562.23;1636584;88;21040;-66
2022/07/20 06:25:41;;;;;;;4.92;2.95;;;;;;;25.37;51.82;100561.25;1622759;86;21062;-66
2022/07/20 06:28:11;;;;;;;8.40;3.35;;;;;;;25.56;51.34;100560.81;1712275;84;21044;-67
2022/07/20 06:30:41;;;;;;;6.97;3.50;;;;;;;25.77;50.72;100563.47;1712498;84;21057;-65
2022/07/20 06:33:13;;;;;;;6.55;3.80;;;;;;;25.97;50.21;100557.66;1666496;85;21140;-66
2022/07/20 06:35:43;;;;;;;8.23;3.37;;;;;;;26.07;49.38;100557.59;1658753;85;21067;-66
2022/07/20 06:38:12;;;;;;;7.53;3.90;;;;;;;26.14;49.22;100552.45;1661650;86;21029;-66
2022/07/20 06:40:42;;;;;;;4.53;2.80;;;;;;;26.22;49.00;100546.18;1661572;86;21060;-67
2022/07/20 06:43:12;;;;;;;5.30;2.98;;;;;;;26.26;48.66;100553.44;1625107;86;21076;-67
2022/07/20 06:45:45;;;;;;;6.10;2.98;;;;;;;26.34;49.09;100547.77;1663088;86;21140;-66
2022/07/20 06:48:16;;;;;;;6.45;3.08;;;;;;;26.45;48.72;100542.29;1673815;85;21070;-65
2022/07/20 06:50:46;;;;;;;4.35;3.83;;;;;;;26.64;48.77;100550.77;1683909;84;21500;-65
2022/07/20 06:53:17;;;;;;;7.92;3.77;;;;;;;26.83;47.83;100550.25;1728707;83;21162;-66
2022/07/20 06:55:47;;;;;;;4.90;2.98;;;;;;;26.91;47.44;100548.73;1739185;82;21093;-65
2022/07/20 06:58:17;;;;;;;3.95;2.90;;;;;;;26.95;47.61;100546.99;1739191;82;21026;-68
2022/07/20 07:00:46;;;;;;;6.42;3.40;;;;;;;26.92;47.71;100544.22;1738828;82;21026;-66
2022/07/20 07:03:17;;;;;;;5.85;4.30;;;;;;;26.92;47.37;100539.16;1738806;82;21097;-67
2022/07/20 07:05:46;;;;;;;5.00;3.47;;;;;;;26.92;48.33;100534.94;1731272;82;21093;-65
2022/07/20 07:08:17;;;;;;;5.03;3.22;;;;;;;26.98;47.41;100524.75;1728671;83;21051;-66
2022/07/20 07:10:48;;;;;;;5.75;4.40;;;;;;;26.94;47.63;100529.28;1726554;83;21485;-67
2022/07/20 07:13:18;;;;;;;4.95;3.60;;;;;;;26.90;47.76;100530.19;1698250;83;21066;-67
2022/07/20 07:15:50;;;;;;;5.83;3.37;;;;;;;26.72;47.94;100518.63;1635239;87;21087;-67
2022/07/20 07:18:20;;;;;;;4.17;3.20;;;;;;;26.60;48.45;100512.58;1609358;89;21592;-66
2022/07/20 07:20:51;;;;;;;4.03;3.27;;;;;;;26.59;47.97;100508.10;1608041;88;21075;-66
2022/07/20 07:23:21;;;;;;;9.38;3.55;;;;;;;26.54;46.27;100501.14;1601413;88;21483;-66
2022/07/20 07:25:53;;;;;;;8.35;3.80;;;;;;;26.43;46.57;100500.44;1605157;89;21123;-65
2022/07/20 07:28:24;;;;;;;5.78;3.52;;;;;;;26.49;46.96;100491.37;1605260;89;21135;-67
2022/07/20 07:30:54;;;;;;;6.97;3.50;;;;;;;26.60;46.73;100495.72;1605229;89;21123;-68
2022/07/20 07:33:25;;;;;;;4.78;3.58;;;;;;;26.76;46.51;100484.55;1651239;83;21105;-67
2022/07/20 07:35:56;;;;;;;5.08;3.62;;;;;;;26.90;45.62;100479.58;1729455;81;21026;-67
2022/07/20 07:38:26;;;;;;;5.03;3.50;;;;;;;27.03;45.74;100482.48;1727538;83;21065;-67
2022/07/20 07:40:56;;;;;;;8.50;3.87;;;;;;;27.12;44.69;100474.19;1727470;83;21051;-67
2022/07/20 07:43:26;;;;;;;5.22;3.27;;;;;;;27.13;45.68;100481.48;1729790;81;21116;-65
2022/07/20 07:45:57;;;;;;;4.40;3.67;;;;;;;27.28;45.19;100471.39;1719812;83;21838;-66
2022/07/20 07:48:28;;;;;;;4.80;3.45;;;;;;;27.50;43.74;100473.56;1717741;82;21098;-67
2022/07/20 07:50:57;;;;;;;5.65;3.42;;;;;;;27.61;43.49;100463.83;1715839;83;21094;-65
2022/07/20 07:53:27;;;;;;;4.22;3.20;;;;;;;27.68;43.27;100467.64;1738669;82;21003;-68
2022/07/20 07:55:58;;;;;;;7.53;3.52;;;;;;;27.60;43.65;100457.90;1727973;82;21221;-65
2022/07/20 07:58:28;;;;;;;3.83;3.12;;;;;;;27.62;43.86;100444.37;1752014;82;21075;-69
2022/07/20 08:00:58;;;;;;;6.35;4.00;;;;;;;27.62;43.88;100442.13;1730940;82;21466;-67
2022/07/20 08:03:27;;;;;;;5.08;3.70;;;;;;;27.56;44.03;100454.03;1717738;83;21059;-68
2022/07/20 08:05:58;;;;;;;3.77;3.37;;;;;;;27.42;43.54;100454.57;1717472;83;21035;-66
2022/07/20 08:08:29;;;;;;;8.90;5.20;;;;;;;27.21;43.58;100461.09;1724211;82;21051;-70
2022/07/20 08:10:59;;;;;;;5.58;3.42;;;;;;;27.00;44.37;100454.97;1705436;83;21063;-67
2022/07/20 08:13:28;;;;;;;5.47;3.60;;;;;;;26.86;44.92;100455.45;1702220;81;21037;-65
2022/07/20 08:15:58;;;;;;;5.65;3.70;;;;;;;26.79;45.13;100450.78;1717607;83;21038;-66
2022/07/20 08:18:29;;;;;;;6.45;3.87;;;;;;;26.76;45.09;100449.41;1744762;82;21015;-68
2022/07/20 08:20:59;;;;;;;7.00;3.90;;;;;;;26.65;45.44;100435.21;1752383;82;21126;-65
2022/07/20 08:23:30;;;;;;;7.72;4.10;;;;;;;26.55;45.65;100436.77;1752365;82;21023;-66
2022/07/20 08:25:59;;;;;;;7.37;3.95;;;;;;;26.47;45.72;100430.42;1739514;82;21073;-66
2022/07/20 08:28:31;;;;;;;5.70;4.12;;;;;;;26.37;45.39;100433.37;1718918;82;21018;-68
2022/07/20 08:31:06;;;;;;;5.50;3.80;;;;;;;26.19;45.21;100432.17;1712961;83;21033;-68
2022/07/20 08:33:35;;;;;;;6.35;3.70;;;;;;;26.05;45.54;100423.65;1716876;83;21446;-67
2022/07/20 08:36:08;;;;;;;5.67;3.50;;;;;;;26.08;45.35;100420.23;1715729;83;21069;-67
2022/07/20 08:38:39;;;;;;;6.03;3.45;;;;;;;26.16;45.69;100418.73;1716155;83;21499;-67
2022/07/20 08:41:11;;;;;;;5.72;3.70;;;;;;;26.29;45.33;100414.34;1718128;82;21133;-68
2022/07/20 08:43:40;;;;;;;6.87;3.50;;;;;;;26.49;44.81;100405.66;1717349;83;21030;-67
2022/07/20 08:46:09;;;;;;;5.72;3.95;;;;;;;26.77;44.32;100399.64;1722946;83;21070;-68
2022/07/20 08:48:40;;;;;;;5.08;3.58;;;;;;;26.99;43.97;100392.83;1725202;83;21074;-67
2022/07/20 08:51:10;;;;;;;5.37;3.22;;;;;;;27.24;43.04;100393.53;1725267;83;21097;-67
2022/07/20 08:53:43;;;;;;;5.53;4.03;;;;;;;27.41;42.86;100372.70;1724482;83;21065;-68
2022/07/20 08:56:21;;;;;;;4.40;3.40;;;;;;;27.60;43.10;100365.00;1724538;83;21052;-67
2022/07/20 08:58:50;;;;;;;5.25;3.27;;;;;;;27.87;42.38;100364.77;1737065;81;21462;-68
2022/07/20 09:01:23;;;;;;;7.22;3.50;;;;;;;27.94;41.95;100367.41;1728277;81;21035;-69
2022/07/20 09:04:10;;;;;;;6.15;3.40;;;;;;;28.02;42.24;100367.28;1724977;83;21085;-67
2022/07/20 09:06:49;;;;;;;5.45;3.50;;;;;;;28.10;41.47;100352.45;1725218;83;21057;-70
2022/07/20 09:09:21;;;;;;;4.92;3.40;;;;;;;28.17;40.51;100341.59;1724487;83;21012;-70
2022/07/20 09:11:54;;;;;;;6.62;3.37;;;;;;;28.15;41.00;100340.23;1722583;83;21072;-71
2022/07/20 09:14:40;;;;;;;5.08;3.75;;;;;;;28.03;41.49;100353.45;1724492;83;21029;-69
2022/07/20 09:17:19;;;;;;;9.50;6.35;;;;;;;27.88;41.67;100339.10;1737347;81;21081;-70
2022/07/20 09:20:00;;;;;;;4.70;3.40;;;;;;;27.83;41.54;100329.36;1771093;81;21070;-71
2022/07/20 09:22:35;;;;;;;5.47;3.60;;;;;;;27.79;42.07;100331.13;1733444;81;21402;-68
2022/07/20 09:25:14;;;;;;;6.58;3.80;;;;;;;27.79;42.79;100332.54;1696285;83;21096;-72
2022/07/20 09:27:45;;;;;;;5.25;3.80;;;;;;;27.89;42.72;100325.86;1721659;83;21475;-64
2022/07/20 09:30:18;;;;;;;4.37;3.30;;;;;;;27.90;42.34;100319.91;1723335;83;21060;-69
2022/07/20 09:33:00;;;;;;;6.95;3.30;;;;;;;27.80;42.58;100321.54;1726191;83;21008;-68
2022/07/20 09:35:34;;;;;;;4.03;3.22;;;;;;;27.80;42.58;100321.54;1728176;81;21596;-70
2022/07/20 09:38:08;;;;;;;6.40;3.55;;;;;;;27.72;42.73;100307.63;1759499;81;21137;-69
2022/07/20 09:40:44;;;;;;;5.28;3.20;;;;;;;27.64;43.06;100304.14;1759712;81;21102;-69
2022/07/20 09:43:30;;;;;;;6.45;3.45;;;;;;;27.61;43.21;100300.55;1759748;81;21447;-70
2022/07/20 09:46:22;;;;;;;4.72;3.50;;;;;;;27.47;43.33;100301.92;1755466;81;21114;-68
2022/07/20 09:48:56;;;;;;;5.28;3.50;;;;;;;27.34;43.87;100289.26;1752060;82;21055;-68
2022/07/20 09:51:35;;;;;;;7.60;3.50;;;;;;;27.20;44.00;100282.75;1721167;82;21019;-65
2022/07/20 09:54:11;;;;;;;8.88;3.77;;;;;;;27.08;44.41;100274.26;1716671;83;21038;-68
2022/07/20 09:56:47;;;;;;;5.15;3.08;;;;;;;27.04;44.34;100278.83;1715425;83;21089;-65
2022/07/20 09:59:19;;;;;;;9.88;4.28;;;;;;;27.07;44.74;100262.74;1715320;83;21430;-66
2022/07/20 10:01:53;;;;;;;8.85;3.77;;;;;;;27.13;44.79;100257.85;1658708;86;21107;-64
2022/07/20 10:04:25;;;;;;;5.83;3.37;;;;;;;27.22;44.12;100247.54;1716141;83;21095;-67
2022/07/20 10:06:57;;;;;;;5.20;3.65;;;;;;;27.23;44.38;100232.33;1636713;86;21111;-68
2022/07/20 10:09:28;;;;;;;5.42;3.42;;;;;;;27.27;44.50;100229.72;1660273;85;21021;-70
2022/07/20 10:12:00;;;;;;;8.13;3.52;;;;;;;27.30;43.75;100221.48;1687823;84;21040;-64
2022/07/20 10:14:31;;;;;;;6.78;4.17;;;;;;;27.28;44.18;100217.32;1710868;83;20997;-62
2022/07/20 10:17:04;;;;;;;4.72;3.20;;;;;;;27.28;43.62;100214.51;1639142;87;21086;-62
2022/07/20 10:19:46;;;;;;;6.00;3.42;;;;;;;27.24;43.58;100217.69;1623765;87;21121;-66
2022/07/20 10:22:17;;;;;;;5.17;3.50;;;;;;;27.18;44.18;100209.92;1648846;87;21078;-68
2022/07/20 10:25:08;;;;;;;5.75;3.12;;;;;;;27.18;44.05;100207.69;1648765;87;21106;-69
2022/07/20 10:27:40;;;;;;;6.75;3.08;;;;;;;27.22;44.15;100204.51;1622628;86;21223;-67
2022/07/20 10:30:21;;;;;;;4.67;3.17;;;;;;;27.24;43.89;100192.37;1627491;86;21093;-69
2022/07/20 10:33:15;;;;;;;5.08;3.35;;;;;;;27.24;44.09;100193.77;1631971;86;21167;-68
2022/07/20 10:35:47;;;;;;;7.92;3.25;;;;;;;27.15;43.49;100181.02;1666838;83;20985;-67
2022/07/20 10:38:21;;;;;;;9.05;3.80;;;;;;;27.12;43.50;100171.80;1715785;83;21053;-68
2022/07/20 10:44:27;;;;;;;6.65;4.00;;;;;;;26.99;43.34;100158.58;1752074;82;21046;-67
2022/07/20 10:46:56;;;;;;;7.00;3.72;;;;;;;26.92;43.83;100158.13;1750554;81;21118;-68
2022/07/20 10:49:49;;;;;;;6.53;3.58;;;;;;;26.87;43.86;100146.98;1738915;82;21036;-69
2022/07/20 10:52:32;;;;;;;6.65;3.62;;;;;;;26.87;43.59;100139.38;1667054;86;21571;-67
2022/07/20 10:55:04;;;;;;;6.50;3.90;;;;;;;26.93;43.87;100128.86;1634965;87;21133;-69
2022/07/20 10:57:36;;;;;;;4.70;3.35;;;;;;;26.93;43.74;100125.48;1608541;88;21542;-67
2022/07/20 11:00:16;;;;;;;5.42;2.90;;;;;;;26.95;43.74;100127.98;1608126;89;21123;-66
2022/07/20 11:02:49;;;;;;;5.80;3.50;;;;;;;26.96;43.81;100132.45;1639331;87;21113;-67
2022/07/20 11:05:20;;;;;;;17.05;4.00;;;;;;;26.96;43.46;100122.61;1645220;87;21106;-66
2022/07/20 11:07:52;;;;;;;5.55;3.80;;;;;;;26.94;43.79;100123.50;1649107;86;21063;-67
2022/07/20 11:10:25;;;;;;;5.30;3.62;;;;;;;26.91;43.60;100124.13;1614471;88;21078;-69
2022/07/20 11:13:02;;;;;;;5.47;3.30;;;;;;;26.91;43.44;100109.49;1636352;88;21042;-69
2022/07/20 11:15:51;;;;;;;5.67;3.72;;;;;;;26.93;43.38;100107.77;1637718;86;21142;-67
2022/07/20 11:18:25;;;;;;;;;;;;;;;26.91;43.09;100109.49;1676480;86;21070;-69
2022/07/20 11:21:04;;;;;;;4.55;3.17;;;;;;;26.88;43.60;100099.45;1673919;86;20203;-69
2022/07/20 11:23:46;;;;;;;6.65;3.50;;;;;;;26.88;44.09;100088.20;1724228;81;21280;-67
2022/07/20 11:26:20;;;;;;;3.87;3.25;;;;;;;26.94;43.73;100082.15;1765579;81;21050;-67
2022/07/20 11:28:57;;;;;;;6.95;3.40;;;;;;;27.05;43.19;100088.42;1765997;81;21197;-68
2022/07/20 11:31:30;;;;;;;4.80;3.12;;;;;;;27.07;42.92;100076.28;1739201;81;21046;-72
2022/07/20 11:34:02;;;;;;;3.52;2.70;;;;;;;27.01;43.11;100070.51;1743895;81;21054;-67
2022/07/20 11:36:36;;;;;;;4.90;3.25;;;;;;;26.96;43.15;100060.75;1765517;81;21082;-63
2022/07/20 11:39:10;;;;;;;4.87;3.30;;;;;;;26.95;43.04;100054.30;1765591;81;21097;-63
2022/07/20 11:41:49;;;;;;;6.12;3.20;;;;;;;26.97;43.31;100061.00;1765660;81;21469;-64
2022/07/20 11:44:26;;;;;;;5.10;3.47;;;;;;;26.99;43.40;100047.50;1766011;81;21054;-64
2022/07/20 11:46:56;;;;;;;6.45;3.08;;;;;;;27.03;43.09;100040.09;1764390;81;21042;-63
2022/07/20 12:30:37;;;;;;;5.35;3.58;;;;;;;27.16;41.81;99967.50;1718585;79;21135;-65
2022/07/20 12:33:14;;;;;;;6.50;3.85;;;;;;;27.10;42.23;99960.33;1688513;83;21060;-65